Time;durP1;ratioP1;P1;durP2;ratioP2;P2;SDS_P1;SDS_P2;PMS_P1;PMS_P2;Temp;Humidity;BMP_temperature;BMP_pressure;BME280_temperature;BME280_humidity;BME280_pressure;Samples;Min_cycle;Max_cycle;Signal;HPM_P1;HPM_P2
2021/01/10 00:00:53;;;;;;;8.52;3.15;;;25.50;59.10;;;;;;5063747;28;20024;-72
2021/01/10 00:03:20;;;;;;;10.48;3.97;;;25.50;59.00;;;;;;5058450;28;20506;-72
2021/01/10 00:05:47;;;;;;;11.77;2.75;;;25.50;58.80;;;;;;5062814;28;20150;-72
2021/01/10 00:08:13;;;;;;;11.10;3.53;;;25.50;58.70;;;;;;5064081;28;20065;-71
2021/01/10 00:10:40;;;;;;;8.85;3.47;;;25.50;58.50;;;;;;5060681;28;20028;-72
2021/01/10 00:13:06;;;;;;;14.98;4.43;;;25.50;58.30;;;;;;5066885;28;20054;-72
2021/01/10 00:15:33;;;;;;;20.45;3.83;;;25.50;58.00;;;;;;5060344;28;20020;-72
2021/01/10 00:18:00;;;;;;;12.65;3.50;;;25.50;57.80;;;;;;5067641;28;20012;-72
2021/01/10 00:20:27;;;;;;;13.02;3.25;;;25.40;57.50;;;;;;5067505;28;20101;-72
2021/01/10 00:22:58;;;;;;;8.35;2.45;;;25.40;57.40;;;;;;5065412;28;20012;-72
2021/01/10 00:25:25;;;;;;;9.32;3.00;;;25.40;57.10;;;;;;5065894;28;20102;-72
2021/01/10 00:27:52;;;;;;;13.35;2.60;;;25.40;56.90;;;;;;5064143;28;20013;-72
2021/01/10 00:30:22;;;;;;;9.13;3.13;;;25.40;56.80;;;;;;5067349;28;20031;-72
2021/01/10 00:32:54;;;;;;;8.70;2.90;;;25.40;56.60;;;;;;5065925;28;20033;-72
2021/01/10 00:35:22;;;;;;;7.00;2.90;;;25.40;56.60;;;;;;5065454;28;20552;-72
2021/01/10 00:37:50;;;;;;;7.18;2.63;;;25.40;56.50;;;;;;5064592;28;20024;-73
2021/01/10 00:40:18;;;;;;;8.35;2.38;;;25.40;56.50;;;;;;5067102;28;20331;-72
2021/01/10 00:42:46;;;;;;;10.82;3.60;;;25.30;56.40;;;;;;5067982;28;20020;-72
2021/01/10 00:45:13;;;;;;;7.85;2.92;;;25.30;56.40;;;;;;5064453;28;20076;-72
2021/01/10 00:47:40;;;;;;;10.88;2.60;;;25.30;56.50;;;;;;5065015;28;20031;-72
2021/01/10 00:50:08;;;;;;;8.70;2.75;;;25.30;56.60;;;;;;5067183;28;20027;-72
2021/01/10 00:52:36;;;;;;;11.68;3.15;;;25.30;56.60;;;;;;5066566;28;20066;-72
2021/01/10 00:55:04;;;;;;;10.98;3.10;;;25.30;56.70;;;;;;5065774;28;20024;-72
2021/01/10 00:57:31;;;;;;;15.85;4.25;;;25.30;56.70;;;;;;5066114;28;20412;-73
2021/01/10 00:59:57;;;;;;;10.98;3.83;;;25.30;56.70;;;;;;5066947;28;20067;-72
2021/01/10 01:02:24;;;;;;;12.75;4.05;;;25.30;56.60;;;;;;5063081;28;20020;-72
2021/01/10 01:04:50;;;;;;;13.10;3.13;;;25.30;56.60;;;;;;5065230;28;20572;-73
2021/01/10 01:07:17;;;;;;;13.13;2.97;;;25.30;56.50;;;;;;5062982;28;20032;-72
2021/01/10 01:09:43;;;;;;;10.25;3.67;;;25.30;56.40;;;;;;5064077;28;20035;-72
2021/01/10 01:12:10;;;;;;;12.73;3.80;;;25.20;56.30;;;;;;5065252;28;20050;-72
2021/01/10 01:14:36;;;;;;;15.32;3.35;;;25.20;56.40;;;;;;5064166;28;20412;-72
2021/01/10 01:17:06;;;;;;;9.20;2.85;;;25.20;56.30;;;;;;5064729;28;20098;-72
2021/01/10 01:19:32;;;;;;;11.45;3.08;;;25.20;56.30;;;;;;5063860;28;20056;-71
2021/01/10 01:22:00;;;;;;;7.95;3.30;;;25.20;56.40;;;;;;5066900;28;20098;-72
2021/01/10 01:24:27;;;;;;;13.15;3.80;;;25.20;56.40;;;;;;5064423;28;20072;-72
2021/01/10 01:26:54;;;;;;;8.80;2.47;;;25.10;56.30;;;;;;5063240;28;20020;-72
2021/01/10 01:29:20;;;;;;;9.55;4.47;;;25.20;56.40;;;;;;5064308;28;20129;-72
2021/01/10 01:31:47;;;;;;;9.57;3.83;;;25.10;56.40;;;;;;5065855;28;20096;-71
2021/01/10 01:34:14;;;;;;;10.65;3.30;;;25.10;56.40;;;;;;5067359;28;20379;-72
2021/01/10 01:36:40;;;;;;;10.85;3.47;;;25.10;56.80;;;;;;5065064;28;20009;-71
2021/01/10 01:39:07;;;;;;;8.65;3.05;;;25.10;56.60;;;;;;5063808;28;20247;-72
2021/01/10 01:41:37;;;;;;;16.13;3.60;;;25.10;56.70;;;;;;5063783;28;20083;-72
2021/01/10 01:44:05;;;;;;;9.52;3.67;;;25.10;56.70;;;;;;5065908;28;20024;-72
2021/01/10 01:46:34;;;;;;;11.15;3.47;;;25.10;56.60;;;;;;5064587;28;20479;-72
2021/01/10 01:49:06;;;;;;;12.30;3.65;;;25.10;56.50;;;;;;5065992;28;20052;-72
2021/01/10 01:51:36;;;;;;;8.98;3.10;;;25.00;56.50;;;;;;5062498;28;20039;-72
2021/01/10 01:54:04;;;;;;;7.80;2.60;;;25.00;56.40;;;;;;5063102;28;20023;-72
2021/01/10 01:56:31;;;;;;;9.38;2.45;;;25.00;56.40;;;;;;5062190;28;20546;-71
2021/01/10 01:59:06;;;;;;;13.55;3.65;;;25.00;56.40;;;;;;5062484;28;20035;-71
2021/01/10 02:01:34;;;;;;;10.73;2.88;;;25.00;56.50;;;;;;5064470;28;20031;-72
2021/01/10 02:04:22;;;;;;;11.18;2.80;;;25.00;56.50;;;;;;5064366;28;20053;-71
2021/01/10 02:07:13;;;;;;;10.45;2.63;;;24.90;56.50;;;;;;5063368;28;20063;-72
2021/01/10 02:10:05;;;;;;;14.07;3.72;;;24.90;56.70;;;;;;5062194;28;20095;-72
2021/01/10 02:12:36;;;;;;;14.05;3.85;;;24.90;56.70;;;;;;5059256;28;20037;-71
2021/01/10 02:15:24;;;;;;;11.68;3.17;;;24.80;56.80;;;;;;5064454;28;20078;-71
2021/01/10 02:18:30;;;;;;;7.43;3.65;;;24.90;56.80;;;;;;5056321;28;20385;-72
2021/01/10 02:21:36;;;;;;;8.85;2.70;;;24.80;56.80;;;;;;5061630;28;20064;-72
2021/01/10 02:24:22;;;;;;;;;;;24.80;56.70;;;;;;5063042;28;20032;-71
2021/01/10 02:27:28;;;;;;;9.65;2.40;;;24.80;56.70;;;;;;5065393;28;19927;-71
2021/01/10 02:30:34;;;;;;;9.80;3.00;;;24.80;56.60;;;;;;5061561;28;20051;-71
2021/01/10 02:33:23;;;;;;;;;;;24.80;56.40;;;;;;5061941;28;20033;-72
2021/01/10 02:36:29;;;;;;;10.95;3.47;;;24.70;56.20;;;;;;5065470;28;19915;-72
2021/01/10 02:39:02;;;;;;;;;;;24.70;56.00;;;;;;5062001;28;20102;-71
2021/01/10 02:42:23;;;;;;;10.23;3.42;;;24.70;55.80;;;;;;5063654;28;19912;-72
2021/01/10 02:45:29;;;;;;;15.45;3.15;;;24.70;55.50;;;;;;5061861;28;20133;-72
2021/01/10 02:48:36;;;;;;;8.40;2.25;;;24.70;55.40;;;;;;5061336;28;20027;-72
2021/01/10 02:51:21;;;;;;;;;;;24.70;55.30;;;;;;5062423;28;20078;-72
2021/01/10 02:54:28;;;;;;;6.10;2.05;;;24.60;55.10;;;;;;5062429;28;19962;-72
2021/01/10 02:57:06;;;;;;;;;;;24.60;55.00;;;;;;5062230;28;20541;-71
2021/01/10 03:00:12;;;;;;;5.72;2.03;;;24.60;54.90;;;;;;5061802;28;19914;-72
2021/01/10 03:02:58;;;;;;;;;;;24.60;54.80;;;;;;5063538;28;21911;-72
2021/01/10 03:06:04;;;;;;;8.15;3.42;;;24.50;54.60;;;;;;5060821;28;20290;-72
2021/01/10 03:08:50;;;;;;;;;;;24.60;54.60;;;;;;5064392;28;20024;-73
2021/01/10 03:11:56;;;;;;;9.13;3.22;;;24.50;54.40;;;;;;5063736;28;19991;-72
2021/01/10 03:14:42;;;;;;;;;;;24.50;54.30;;;;;;5063215;28;20029;-72
2021/01/10 03:17:57;;;;;;;13.00;2.25;;;24.50;54.30;;;;;;5062208;28;20274;-73
2021/01/10 03:21:03;;;;;;;7.75;2.42;;;24.40;54.20;;;;;;5065512;28;20081;-72
2021/01/10 03:23:49;;;;;;;;;;;24.40;54.40;;;;;;5065710;28;20078;-72
2021/01/10 03:26:55;;;;;;;12.45;2.60;;;24.40;54.60;;;;;;5062666;28;20444;-72
2021/01/10 03:30:01;;;;;;;9.55;2.90;;;24.40;54.80;;;;;;5061181;28;20111;-72
2021/01/10 03:33:07;;;;;;;11.00;2.85;;;24.40;54.90;;;;;;5062187;28;20417;-71
2021/01/10 03:35:53;;;;;;;;;;;24.40;54.90;;;;;;5061417;28;20418;-72
2021/01/10 03:38:59;;;;;;;8.38;1.98;;;24.30;54.90;;;;;;5059118;28;19955;-72
2021/01/10 03:42:05;;;;;;;8.15;2.05;;;24.30;55.00;;;;;;5062894;28;20078;-72
2021/01/10 03:44:51;;;;;;;;;;;24.30;54.80;;;;;;5063761;28;20028;-72
2021/01/10 03:47:57;;;;;;;6.95;2.95;;;24.30;54.80;;;;;;5063241;28;19962;-72
2021/01/10 03:51:03;;;;;;;9.38;2.50;;;24.30;54.70;;;;;;5065471;28;20406;-72
2021/01/10 03:54:09;;;;;;;13.90;3.67;;;24.30;54.70;;;;;;5063457;28;20163;-72
2021/01/10 03:57:16;;;;;;;8.13;3.35;;;24.30;54.60;;;;;;5068307;28;20040;-72
2021/01/10 04:00:01;;;;;;;;;;;24.30;54.60;;;;;;5065260;28;20449;-72
2021/01/10 04:03:08;;;;;;;13.63;3.20;;;24.30;54.50;;;;;;5068219;28;19912;-72
2021/01/10 04:05:53;;;;;;;;;;;24.20;54.30;;;;;;5067239;28;20040;-72
2021/01/10 04:09:00;;;;;;;11.90;3.30;;;24.20;54.20;;;;;;5063544;28;20287;-71
2021/01/10 04:12:06;;;;;;;8.90;2.50;;;24.20;54.20;;;;;;5067051;28;20025;-72
2021/01/10 04:15:12;;;;;;;12.85;2.50;;;24.20;54.20;;;;;;5059123;28;20487;-71
2021/01/10 04:18:18;;;;;;;8.38;3.22;;;24.20;54.10;;;;;;5064421;28;20024;-72
2021/01/10 04:21:04;;;;;;;;;;;24.20;54.00;;;;;;5064308;28;20074;-71
2021/01/10 04:24:10;;;;;;;11.40;2.42;;;24.10;53.90;;;;;;5062109;28;19948;-71
2021/01/10 04:27:19;;;;;;;12.00;2.42;;;24.20;53.70;;;;;;5063044;28;20133;-71
2021/01/10 04:30:25;;;;;;;8.95;2.63;;;24.10;53.60;;;;;;5064134;28;20028;-71
2021/01/10 04:33:31;;;;;;;7.05;2.40;;;24.10;53.40;;;;;;5063899;28;20034;-72
2021/01/10 04:36:37;;;;;;;17.63;3.13;;;24.10;53.30;;;;;;5065317;28;20378;-72
2021/01/10 04:39:23;;;;;;;;;;;24.10;53.20;;;;;;5061933;28;20096;-71
2021/01/10 04:42:29;;;;;;;8.45;2.65;;;24.10;53.00;;;;;;5062472;28;19913;-71
2021/01/10 04:45:35;;;;;;;6.63;2.65;;;24.10;53.00;;;;;;5069541;28;20399;-71
2021/01/10 04:48:41;;;;;;;6.45;2.38;;;24.10;52.90;;;;;;5064517;28;20052;-71
2021/01/10 04:51:47;;;;;;;8.30;2.95;;;24.10;52.80;;;;;;5066927;28;20063;-71
2021/01/10 04:54:33;;;;;;;;;;;24.00;52.60;;;;;;5066269;28;20510;-73
2021/01/10 04:57:39;;;;;;;8.82;2.50;;;24.00;52.60;;;;;;5060782;28;19909;-73
2021/01/10 05:00:45;;;;;;;7.78;2.70;;;24.00;52.60;;;;;;5066788;28;20111;-71
2021/01/10 05:03:52;;;;;;;5.85;2.92;;;24.00;52.50;;;;;;5066491;28;20029;-72
2021/01/10 05:06:58;;;;;;;9.80;2.60;;;24.00;52.50;;;;;;5065383;28;20182;-72
2021/01/10 05:09:44;;;;;;;;;;;24.00;52.50;;;;;;5060872;28;20032;-72
2021/01/10 05:12:50;;;;;;;7.25;2.47;;;24.00;52.50;;;;;;5066546;28;19912;-72
2021/01/10 05:15:56;;;;;;;14.00;2.80;;;24.00;52.50;;;;;;5063399;28;20029;-72
2021/01/10 05:19:08;;;;;;;6.32;2.58;;;24.00;52.50;;;;;;5060925;28;20063;-71
2021/01/10 05:22:15;;;;;;;8.93;2.90;;;24.00;52.50;;;;;;5058033;28;20028;-72
2021/01/10 05:25:33;;;;;;;8.60;3.03;;;24.00;52.50;;;;;;5063665;28;20021;-71
2021/01/10 05:28:39;;;;;;;6.50;2.47;;;24.00;52.50;;;;;;5061737;28;20116;-71
2021/01/10 05:32:00;;;;;;;10.13;2.83;;;24.00;52.50;;;;;;5064039;28;20024;-71
2021/01/10 05:35:06;;;;;;;10.90;3.20;;;24.00;52.60;;;;;;5064995;28;20067;-70
2021/01/10 05:38:19;;;;;;;13.02;2.45;;;24.10;52.50;;;;;;5064232;28;20034;-70
2021/01/10 05:40:45;;;;;;;66.25;57.38;;;24.10;52.40;;;;;;5061796;28;20095;-71
2021/01/10 05:43:12;;;;;;;54.22;42.05;;;24.10;52.20;;;;;;5064094;28;20404;-71
2021/01/10 05:45:38;;;;;;;32.92;24.95;;;24.10;52.00;;;;;;5064657;28;20115;-71
2021/01/10 05:48:15;;;;;;;22.90;15.23;;;24.10;52.00;;;;;;5064338;28;20063;-71
2021/01/10 05:50:46;;;;;;;17.38;8.73;;;24.10;51.90;;;;;;5058214;28;20119;-72
2021/01/10 05:53:25;;;;;;;15.82;7.68;;;24.10;51.80;;;;;;5060397;28;20051;-71
2021/01/10 05:56:02;;;;;;;12.07;4.80;;;24.10;51.70;;;;;;5064788;28;20032;-73
2021/01/10 05:58:30;;;;;;;10.60;4.15;;;24.20;51.50;;;;;;5065318;28;20438;-70
2021/01/10 06:01:10;;;;;;;5.35;2.95;;;24.20;51.50;;;;;;5065964;28;20093;-71
2021/01/10 06:04:16;;;;;;;12.10;3.20;;;24.20;51.30;;;;;;5059556;28;20028;-71
2021/01/10 06:07:22;;;;;;;9.90;2.20;;;24.20;51.80;;;;;;5062917;28;20080;-70
2021/01/10 06:10:08;;;;;;;;;;;24.30;51.10;;;;;;5061024;28;20430;-70
2021/01/10 06:13:20;;;;;;;13.88;3.50;;;24.30;51.00;;;;;;5059847;28;19959;-71
2021/01/10 06:16:18;;;;;;;10.95;2.83;;;24.30;51.00;;;;;;5061998;28;20593;-70
2021/01/10 06:19:06;;;;;;;9.10;2.25;;;24.30;51.00;;;;;;5056904;28;20021;-71
2021/01/10 06:21:34;;;;;;;7.53;2.70;;;24.40;51.00;;;;;;5060539;28;20020;-70
2021/01/10 06:24:03;;;;;;;7.40;2.13;;;24.40;50.80;;;;;;5063327;28;20021;-71
2021/01/10 06:26:32;;;;;;;8.13;2.80;;;24.40;50.70;;;;;;5063884;28;20036;-71
2021/01/10 06:29:45;;;;;;;12.13;4.07;;;24.50;50.70;;;;;;5064417;28;20028;-70
2021/01/10 06:32:51;;;;;;;8.55;2.90;;;24.50;50.50;;;;;;5059249;28;20037;-71
2021/01/10 06:35:19;;;;;;;8.85;3.60;;;24.50;50.30;;;;;;5057128;28;20120;-71
2021/01/10 06:37:46;;;;;;;10.02;4.70;;;24.60;50.20;;;;;;5062655;28;20024;-73
2021/01/10 06:40:19;;;;;;;11.07;3.55;;;24.60;50.00;;;;;;5060896;28;20035;-71
2021/01/10 06:42:52;;;;;;;12.80;3.13;;;24.60;49.80;;;;;;5063271;28;20012;-71
2021/01/10 06:45:21;;;;;;;14.55;2.92;;;24.70;49.70;;;;;;5061338;28;20058;-71
2021/01/10 06:47:54;;;;;;;8.65;2.60;;;24.70;49.50;;;;;;5060984;28;20020;-72
2021/01/10 06:50:22;;;;;;;7.03;2.35;;;24.70;49.30;;;;;;5062423;28;20037;-71
2021/01/10 06:53:28;;;;;;;7.18;2.83;;;24.70;49.10;;;;;;5057141;28;20028;-71
2021/01/10 06:56:34;;;;;;;7.85;2.58;;;24.80;49.00;;;;;;5065644;28;20364;-71
2021/01/10 06:59:19;;;;;;;;;;;24.80;48.90;;;;;;5063701;28;20396;-71
2021/01/10 07:01:48;;;;;;;7.80;2.75;;;24.80;48.80;;;;;;5061888;28;19955;-72
2021/01/10 07:04:19;;;;;;;7.45;2.55;;;24.90;48.70;;;;;;5063619;28;20130;-71
2021/01/10 07:06:50;;;;;;;7.78;2.58;;;24.90;48.70;;;;;;5061209;28;20503;-73
2021/01/10 07:09:18;;;;;;;9.90;3.08;;;24.90;48.70;;;;;;5062021;28;20036;-72
2021/01/10 07:11:45;;;;;;;6.90;2.40;;;25.00;48.70;;;;;;5059273;28;20024;-72
2021/01/10 07:14:18;;;;;;;6.20;2.35;;;25.00;48.60;;;;;;5059901;28;20029;-71
2021/01/10 07:16:45;;;;;;;9.43;1.95;;;25.00;48.50;;;;;;5064213;28;20032;-72
2021/01/10 07:19:13;;;;;;;7.88;1.98;;;25.10;48.50;;;;;;5062304;28;20074;-71
2021/01/10 07:21:42;;;;;;;9.05;2.08;;;25.10;48.40;;;;;;5066134;28;20074;-71
2021/01/10 07:26:51;;;;;;;7.13;2.45;;;25.10;48.40;;;;;;5071000;28;20342;-71
2021/01/10 07:29:42;;;;;;;9.32;2.55;;;25.20;48.40;;;;;;5069678;28;20423;-71
2021/01/10 07:32:51;;;;;;;12.55;2.63;;;25.20;48.30;;;;;;5066436;28;20798;-68
2021/01/10 07:35:57;;;;;;;7.18;3.15;;;25.30;48.30;;;;;;5063956;28;20032;-71
2021/01/10 07:38:43;;;;;;;;;;;25.30;48.20;;;;;;5067726;28;20028;-72
2021/01/10 07:42:07;;;;;;;12.75;6.15;;;25.30;48.20;;;;;;5067372;28;19940;-72
2021/01/10 07:45:20;;;;;;;12.82;7.47;;;25.40;48.10;;;;;;5068199;28;20028;-71
2021/01/10 07:48:26;;;;;;;10.88;5.85;;;25.40;48.70;;;;;;5061251;28;20060;-72
2021/01/10 07:51:12;;;;;;;;;;;25.50;48.00;;;;;;5063738;28;20017;-72
2021/01/10 07:54:27;;;;;;;10.18;3.95;;;25.50;47.90;;;;;;5063253;28;19908;-71
2021/01/10 07:57:47;;;;;;;13.50;3.00;;;25.50;47.80;;;;;;5068303;28;20033;-72
2021/01/10 08:00:45;;;;;;;6.38;2.15;;;25.60;47.80;;;;;;5068507;28;20158;-71
2021/01/10 08:03:51;;;;;;;8.15;2.30;;;25.60;47.70;;;;;;5064777;28;20028;-73
2021/01/10 08:06:59;;;;;;;6.75;2.53;;;25.60;47.50;;;;;;5064745;28;20152;-73
2021/01/10 08:10:08;;;;;;;9.60;2.13;;;25.70;47.50;;;;;;5063289;28;20115;-75
2021/01/10 08:13:14;;;;;;;5.88;3.30;;;25.70;47.30;;;;;;5065465;28;20099;-75
2021/01/10 08:16:06;;;;;;;;;;;25.70;47.20;;;;;;5062165;28;20447;-72
2021/01/10 08:19:12;;;;;;;12.05;7.93;;;25.80;47.10;;;;;;5067466;28;19908;-78
2021/01/10 08:22:18;;;;;;;11.73;5.80;;;25.80;47.00;;;;;;5064114;28;20017;-75
2021/01/10 08:25:04;;;;;;;;;;;25.90;47.50;;;;;;5066041;28;20033;-76
2021/01/10 08:28:11;;;;;;;11.25;3.50;;;25.90;46.80;;;;;;5061256;28;20341;-73
2021/01/10 08:31:18;;;;;;;8.07;3.50;;;25.90;46.70;;;;;;5066045;28;20038;-81
2021/01/10 08:34:27;;;;;;;8.38;2.42;;;26.00;46.70;;;;;;5062158;28;20138;-75
2021/01/10 08:37:35;;;;;;;7.65;1.90;;;26.00;46.70;;;;;;5064635;28;20028;-77
2021/01/10 08:40:41;;;;;;;6.72;2.47;;;26.10;46.70;;;;;;5067507;28;20579;-72
2021/01/10 08:43:27;;;;;;;;;;;26.10;46.60;;;;;;5065379;28;20403;-79
2021/01/10 08:46:34;;;;;;;8.48;2.00;;;26.10;46.40;;;;;;5063948;28;19923;-78
2021/01/10 08:49:42;;;;;;;13.88;2.30;;;26.20;46.20;;;;;;5064442;28;20400;-77
2021/01/10 08:52:48;;;;;;;9.65;2.63;;;26.20;46.00;;;;;;5063261;28;20028;-72
2021/01/10 08:55:34;;;;;;;;;;;26.30;46.00;;;;;;5061769;28;20715;-73
2021/01/10 08:58:42;;;;;;;8.95;2.50;;;26.30;45.90;;;;;;5063272;28;19958;-71
2021/01/10 09:01:49;;;;;;;12.55;2.72;;;26.30;45.80;;;;;;5065188;28;20023;-71
2021/01/10 09:04:58;;;;;;;9.75;2.45;;;26.30;45.80;;;;;;5063893;28;20052;-72
2021/01/10 09:08:04;;;;;;;9.57;2.63;;;26.30;45.70;;;;;;5060128;28;20164;-77
2021/01/10 09:11:10;;;;;;;7.80;2.92;;;26.40;45.90;;;;;;5063569;28;20021;-75
2021/01/10 09:14:17;;;;;;;7.82;2.15;;;26.50;45.70;;;;;;5063244;28;20507;-74
2021/01/10 09:17:24;;;;;;;8.55;2.53;;;26.50;45.70;;;;;;5065812;28;20020;-74
2021/01/10 09:20:36;;;;;;;12.77;5.90;;;26.60;45.50;;;;;;5062875;28;20057;-72
2021/01/10 09:23:48;;;;;;;13.02;7.40;;;26.60;45.40;;;;;;5064492;28;20040;-73
2021/01/10 09:27:03;;;;;;;15.88;6.20;;;26.60;45.30;;;;;;5061692;28;20129;-69
2021/01/10 09:30:09;;;;;;;10.38;5.45;;;26.70;45.30;;;;;;5062806;28;20020;-72
2021/01/10 09:33:15;;;;;;;9.50;3.30;;;26.70;45.30;;;;;;5064268;28;20055;-73
2021/01/10 09:36:25;;;;;;;6.47;2.60;;;26.70;45.00;;;;;;5063450;28;20013;-73
2021/01/10 09:39:34;;;;;;;6.10;2.67;;;26.70;44.90;;;;;;5063758;28;20034;-73
2021/01/10 09:42:40;;;;;;;5.18;2.78;;;26.80;44.90;;;;;;5061292;28;20476;-72
2021/01/10 09:45:52;;;;;;;9.80;2.92;;;26.90;44.90;;;;;;5063147;28;20055;-71
2021/01/10 09:48:59;;;;;;;6.68;2.40;;;26.90;44.80;;;;;;5065441;28;20074;-71
2021/01/10 09:52:11;;;;;;;11.23;2.83;;;26.90;44.60;;;;;;5064321;28;20028;-72
2021/01/10 09:55:18;;;;;;;12.45;2.42;;;27.00;44.60;;;;;;5063481;28;20031;-72
2021/01/10 09:58:24;;;;;;;5.30;1.98;;;27.00;44.40;;;;;;5063170;28;20021;-73
2021/01/10 10:01:36;;;;;;;12.15;3.22;;;27.10;44.30;;;;;;5065518;28;20025;-72
2021/01/10 10:04:45;;;;;;;12.73;3.15;;;27.20;44.10;;;;;;5059562;28;20040;-72
2021/01/10 10:07:52;;;;;;;7.25;2.58;;;27.20;44.10;;;;;;5059726;28;20056;-72
2021/01/10 10:10:59;;;;;;;11.88;2.85;;;27.20;43.90;;;;;;5063970;28;20029;-72
2021/01/10 10:14:05;;;;;;;11.23;2.88;;;27.20;43.90;;;;;;5063109;28;20074;-72
2021/01/10 10:17:13;;;;;;;12.05;2.90;;;27.30;43.90;;;;;;5064175;28;20475;-72
2021/01/10 10:20:20;;;;;;;9.50;3.05;;;27.30;44.00;;;;;;5060978;28;20039;-74
2021/01/10 10:23:27;;;;;;;8.15;3.13;;;27.30;44.00;;;;;;5065884;28;20027;-71
2021/01/10 10:26:33;;;;;;;8.35;3.05;;;27.40;44.00;;;;;;5061687;28;20490;-71
2021/01/10 10:29:39;;;;;;;7.65;3.58;;;27.40;43.90;;;;;;5062895;28;20032;-72
2021/01/10 10:32:45;;;;;;;6.88;2.75;;;27.40;43.90;;;;;;5064481;28;20029;-74
2021/01/10 10:35:51;;;;;;;5.53;2.42;;;27.40;43.90;;;;;;5061489;28;20060;-72
2021/01/10 10:38:57;;;;;;;7.22;2.33;;;27.40;43.80;;;;;;5062588;28;20035;-70
2021/01/10 10:41:24;;;;;;;6.78;2.05;;;27.50;43.80;;;;;;5065003;28;20058;-70
2021/01/10 10:43:50;;;;;;;13.10;3.08;;;27.50;43.70;;;;;;5061190;28;20025;-69
2021/01/10 10:46:18;;;;;;;14.93;3.25;;;27.50;43.60;;;;;;5063140;28;20040;-69
2021/01/10 10:48:45;;;;;;;11.00;3.20;;;27.50;43.60;;;;;;5061523;28;20480;-69
2021/01/10 10:51:11;;;;;;;10.88;3.25;;;27.60;43.60;;;;;;5065171;28;20422;-69
2021/01/10 10:53:38;;;;;;;10.95;3.60;;;27.60;43.60;;;;;;5061278;28;20400;-69
2021/01/10 10:56:05;;;;;;;9.93;4.07;;;27.60;43.60;;;;;;5058653;28;20483;-71
2021/01/10 10:58:31;;;;;;;16.63;7.93;;;27.70;43.70;;;;;;5062642;28;20025;-71
2021/01/10 11:00:58;;;;;;;37.03;11.60;;;27.70;43.70;;;;;;5065110;28;20021;-71
2021/01/10 11:03:25;;;;;;;16.75;6.03;;;27.80;43.70;;;;;;5064646;28;20487;-71
2021/01/10 11:05:52;;;;;;;14.57;4.60;;;27.80;43.60;;;;;;5061219;28;20056;-71
2021/01/10 11:08:20;;;;;;;11.73;4.00;;;27.90;43.50;;;;;;5062670;28;20052;-71
2021/01/10 11:10:48;;;;;;;11.93;3.42;;;27.90;43.40;;;;;;5064409;28;20020;-68
2021/01/10 11:13:14;;;;;;;11.27;3.50;;;27.90;43.30;;;;;;5061820;28;20051;-69
2021/01/10 11:15:41;;;;;;;9.57;3.03;;;28.00;43.30;;;;;;5064716;28;20078;-68
2021/01/10 11:18:07;;;;;;;10.10;3.35;;;28.10;43.20;;;;;;5064786;28;20403;-69
2021/01/10 11:20:35;;;;;;;15.07;2.92;;;28.10;43.10;;;;;;5062670;28;20391;-68
2021/01/10 11:23:41;;;;;;;10.20;4.47;;;28.10;43.10;;;;;;5060198;28;20024;-69
2021/01/10 11:26:47;;;;;;;6.75;3.28;;;28.20;43.10;;;;;;5065092;28;20086;-70
2021/01/10 11:29:16;;;;;;;8.25;3.55;;;28.20;43.00;;;;;;5063500;28;20392;-69
2021/01/10 11:31:43;;;;;;;19.23;3.70;;;28.20;43.60;;;;;;5063190;28;20452;-70
2021/01/10 11:34:11;;;;;;;8.45;2.95;;;28.20;42.80;;;;;;5062166;28;20031;-69
2021/01/10 11:36:45;;;;;;;9.63;3.22;;;28.30;42.80;;;;;;5064553;28;20545;-68
2021/01/10 11:39:13;;;;;;;8.82;2.70;;;28.30;42.90;;;;;;5062096;28;20475;-70
2021/01/10 11:41:53;;;;;;;19.35;14.32;;;28.30;42.80;;;;;;5064990;28;20031;-71
2021/01/10 11:44:22;;;;;;;17.13;10.38;;;28.30;42.70;;;;;;5061179;28;20028;-70
2021/01/10 11:46:56;;;;;;;19.73;7.97;;;28.40;42.90;;;;;;5064455;28;20036;-70
2021/01/10 11:49:30;;;;;;;9.32;4.38;;;28.40;42.80;;;;;;5079453;28;20041;-70
2021/01/10 11:52:36;;;;;;;9.63;4.40;;;28.40;42.50;;;;;;5056198;28;20384;-70
2021/01/10 11:55:03;;;;;;;11.18;4.65;;;28.40;42.40;;;;;;5053773;28;20104;-70
2021/01/10 11:57:29;;;;;;;8.15;3.42;;;28.50;42.40;;;;;;5057861;28;20028;-69
2021/01/10 12:00:36;;;;;;;13.90;3.70;;;28.50;42.40;;;;;;5060950;28;20052;-70
2021/01/10 12:03:42;;;;;;;6.30;2.83;;;28.50;42.20;;;;;;5062405;28;20024;-70
2021/01/10 12:06:49;;;;;;;6.38;2.33;;;28.50;42.10;;;;;;5064393;28;20047;-71
2021/01/10 12:09:55;;;;;;;8.43;3.70;;;28.50;41.80;;;;;;5060518;28;20545;-70
2021/01/10 12:13:03;;;;;;;11.23;3.05;;;28.60;41.90;;;;;;5064882;28;20048;-72
2021/01/10 12:16:09;;;;;;;7.00;2.85;;;28.60;41.90;;;;;;5064058;28;20043;-68
2021/01/10 12:18:35;;;;;;;10.80;2.85;;;28.60;41.90;;;;;;5063739;28;20028;-70
2021/01/10 12:21:05;;;;;;;13.50;3.50;;;28.60;42.00;;;;;;5061960;28;20069;-70
2021/01/10 12:23:31;;;;;;;12.88;3.58;;;28.70;41.90;;;;;;5065921;28;20647;-69
2021/01/10 12:25:58;;;;;;;14.52;3.70;;;28.70;41.80;;;;;;5063990;28;20033;-69
2021/01/10 12:28:57;;;;;;;11.80;2.63;;;28.70;41.90;;;;;;5066495;28;20730;-69
2021/01/10 12:32:03;;;;;;;22.77;3.33;;;28.70;42.40;;;;;;5059065;28;20024;-69
2021/01/10 12:35:09;;;;;;;11.27;3.80;;;28.70;41.90;;;;;;5063542;28;20024;-69
2021/01/10 12:38:15;;;;;;;11.00;4.45;;;28.70;41.80;;;;;;5067016;28;20017;-69
2021/01/10 12:41:23;;;;;;;8.85;4.05;;;28.70;41.60;;;;;;5059563;28;20055;-69
2021/01/10 12:44:29;;;;;;;17.35;3.25;;;28.80;41.60;;;;;;5060582;28;20036;-69
2021/01/10 12:46:55;;;;;;;17.88;3.00;;;28.80;41.50;;;;;;5066156;28;20036;-69
2021/01/10 12:49:23;;;;;;;12.60;3.30;;;28.90;41.60;;;;;;5064325;28;20020;-69
2021/01/10 12:51:50;;;;;;;10.40;2.90;;;28.80;41.50;;;;;;5066382;28;20141;-68
2021/01/10 12:54:20;;;;;;;13.32;2.53;;;28.90;41.50;;;;;;5066821;28;20138;-71
2021/01/10 12:56:48;;;;;;;11.77;3.63;;;28.80;41.40;;;;;;5062190;28;20020;-69
2021/01/10 12:59:16;;;;;;;11.07;3.38;;;28.90;41.50;;;;;;5064167;28;20053;-71
2021/01/10 13:01:42;;;;;;;11.15;3.60;;;28.90;41.60;;;;;;5063565;28;20139;-70
2021/01/10 13:04:09;;;;;;;9.88;3.15;;;28.90;41.60;;;;;;5064631;28;20053;-69
2021/01/10 13:06:37;;;;;;;15.45;2.92;;;28.90;41.60;;;;;;5064326;28;20150;-69
2021/01/10 13:09:06;;;;;;;9.00;3.00;;;28.90;41.60;;;;;;5063633;28;20012;-70
2021/01/10 13:11:33;;;;;;;9.98;3.78;;;28.90;41.50;;;;;;5063758;28;20020;-68
2021/01/10 13:14:00;;;;;;;10.45;5.43;;;28.90;41.30;;;;;;5063333;28;20019;-69
2021/01/10 13:16:27;;;;;;;11.77;4.72;;;28.90;41.20;;;;;;5061619;28;20173;-69
2021/01/10 13:18:56;;;;;;;19.58;6.60;;;28.90;41.20;;;;;;5063661;28;20062;-69
2021/01/10 13:21:23;;;;;;;10.98;5.95;;;29.00;41.30;;;;;;5063592;28;20028;-68
2021/01/10 13:23:50;;;;;;;12.68;7.22;;;28.90;41.20;;;;;;5064229;28;20035;-67
2021/01/10 13:26:29;;;;;;;17.40;8.05;;;29.00;41.30;;;;;;5063493;28;20044;-70
2021/01/10 13:28:57;;;;;;;12.60;6.82;;;29.00;41.30;;;;;;5063119;28;20025;-69
2021/01/10 13:31:23;;;;;;;14.13;6.35;;;29.00;41.40;;;;;;5062608;28;20451;-68
2021/01/10 13:33:50;;;;;;;12.73;5.53;;;28.90;41.30;;;;;;5063264;28;20025;-69
2021/01/10 13:36:23;;;;;;;14.77;4.50;;;29.00;41.40;;;;;;5061191;28;20064;-70
2021/01/10 13:38:50;;;;;;;11.95;4.90;;;29.00;41.90;;;;;;5063027;28;20032;-69
2021/01/10 13:41:20;;;;;;;9.80;3.92;;;29.00;41.20;;;;;;5064978;28;20016;-70
2021/01/10 13:43:47;;;;;;;10.45;3.63;;;29.00;41.20;;;;;;5063987;28;20008;-69
2021/01/10 13:46:15;;;;;;;9.07;3.50;;;29.00;41.10;;;;;;5063250;28;20166;-70
2021/01/10 13:48:44;;;;;;;8.32;3.83;;;29.00;41.20;;;;;;5063142;28;20021;-69
2021/01/10 13:51:24;;;;;;;11.40;3.20;;;29.00;41.30;;;;;;5065025;28;20097;-69
2021/01/10 13:53:53;;;;;;;8.55;2.70;;;29.00;41.20;;;;;;5064127;28;20036;-68
2021/01/10 13:56:25;;;;;;;15.85;3.50;;;29.00;41.30;;;;;;5062853;28;20051;-70
2021/01/10 13:58:53;;;;;;;12.68;2.75;;;29.00;41.20;;;;;;5065074;28;20085;-71
2021/01/10 14:01:28;;;;;;;11.65;3.17;;;29.00;41.10;;;;;;5064537;28;20021;-71
2021/01/10 14:03:55;;;;;;;9.07;2.88;;;28.90;41.10;;;;;;5063719;28;20055;-70
2021/01/10 14:06:24;;;;;;;12.63;3.25;;;28.90;41.20;;;;;;5064096;28;20732;-71
2021/01/10 14:08:52;;;;;;;13.93;4.60;;;29.00;41.20;;;;;;5065733;28;20020;-69
2021/01/10 14:11:20;;;;;;;13.73;3.80;;;28.90;41.10;;;;;;5062548;28;20047;-69
2021/01/10 14:13:52;;;;;;;15.23;4.28;;;28.90;41.10;;;;;;5064135;28;20050;-70
2021/01/10 14:16:21;;;;;;;9.55;4.72;;;28.90;41.20;;;;;;5062065;28;20040;-69
2021/01/10 14:18:53;;;;;;;14.35;5.50;;;28.80;41.20;;;;;;5065902;28;20016;-73
2021/01/10 14:21:30;;;;;;;16.70;10.88;;;28.80;41.30;;;;;;5063165;28;20028;-70
2021/01/10 14:23:59;;;;;;;21.42;9.98;;;28.80;41.30;;;;;;5063247;28;20154;-69
2021/01/10 14:26:33;;;;;;;19.75;10.15;;;28.80;41.40;;;;;;5062293;28;20685;-70
2021/01/10 14:29:01;;;;;;;12.63;6.05;;;28.80;41.50;;;;;;5064899;28;20013;-69